createdAt,value
2022-08-30T00:00:21.214Z,17.20
2022-08-30T00:02:49.192Z,17.17
2022-08-30T00:05:18.704Z,17.18
2022-08-30T00:07:46.543Z,17.18
2022-08-30T00:10:14.577Z,17.18
2022-08-30T00:12:43.508Z,17.17
2022-08-30T00:15:13.091Z,17.16
2022-08-30T00:17:41.953Z,17.16
2022-08-30T00:20:12.339Z,17.16
2022-08-30T00:22:41.703Z,17.14
2022-08-30T00:25:10.105Z,17.15
2022-08-30T00:27:37.916Z,17.15
2022-08-30T00:30:07.460Z,17.14
2022-08-30T00:32:35.283Z,17.13
2022-08-30T00:35:03.312Z,17.12
2022-08-30T00:37:31.208Z,17.09
2022-08-30T00:40:00.590Z,17.05
2022-08-30T00:42:28.660Z,17.03
2022-08-30T00:44:56.500Z,17.01
2022-08-30T00:47:24.312Z,16.97
2022-08-30T00:49:57.885Z,16.94
2022-08-30T00:52:25.751Z,16.91
2022-08-30T00:54:54.158Z,16.89
2022-08-30T00:57:23.385Z,16.87
2022-08-30T00:59:51.747Z,16.82
2022-08-30T01:02:23.810Z,16.80
2022-08-30T01:04:52.589Z,16.76
2022-08-30T01:07:20.469Z,16.72
2022-08-30T01:09:48.429Z,16.68
2022-08-30T01:12:17.385Z,16.64
2022-08-30T01:14:48.556Z,16.61
2022-08-30T01:17:17.383Z,16.58
2022-08-30T01:19:51.474Z,16.54
2022-08-30T01:22:27.966Z,16.51
2022-08-30T01:25:00.411Z,16.47
2022-08-30T01:27:30.384Z,16.44
2022-08-30T01:29:59.947Z,16.41
2022-08-30T01:32:29.993Z,16.38
2022-08-30T01:34:58.482Z,16.35
2022-08-30T01:37:29.993Z,16.31
2022-08-30T01:39:59.436Z,16.29
2022-08-30T01:42:27.953Z,16.27
2022-08-30T01:44:56.088Z,16.25
2022-08-30T01:47:24.110Z,16.24
2022-08-30T01:49:52.243Z,16.23
2022-08-30T01:52:20.212Z,16.21
2022-08-30T01:54:49.175Z,16.21
2022-08-30T01:57:21.067Z,16.22
2022-08-30T01:59:50.312Z,16.20
2022-08-30T02:02:20.939Z,16.18
2022-08-30T02:04:48.931Z,16.17
2022-08-30T02:07:17.203Z,16.15
2022-08-30T02:09:46.117Z,16.14
2022-08-30T02:12:14.506Z,16.12
2022-08-30T02:14:44.022Z,16.11
2022-08-30T02:17:14.020Z,16.08
2022-08-30T02:19:42.743Z,16.06
2022-08-30T02:22:10.865Z,16.02
2022-08-30T02:24:38.864Z,16.00
2022-08-30T02:27:07.218Z,15.98
2022-08-30T02:29:35.296Z,15.96
2022-08-30T02:32:05.151Z,15.94
2022-08-30T02:34:33.261Z,15.91
2022-08-30T02:37:01.411Z,15.87
2022-08-30T02:39:29.332Z,15.84
2022-08-30T02:41:57.924Z,15.81
2022-08-30T02:44:25.726Z,15.80
2022-08-30T02:46:53.652Z,15.77
2022-08-30T02:49:33.291Z,15.72
2022-08-30T02:52:02.018Z,15.69
2022-08-30T02:54:32.431Z,15.65
2022-08-30T02:57:03.073Z,15.62
2022-08-30T02:59:31.307Z,15.59
2022-08-30T03:01:59.161Z,15.56
2022-08-30T03:04:28.375Z,15.51
2022-08-30T03:06:56.459Z,15.48
2022-08-30T03:09:24.294Z,15.44
2022-08-30T03:11:52.137Z,15.42
2022-08-30T03:14:19.978Z,15.38
2022-08-30T03:16:47.873Z,15.35
2022-08-30T03:19:15.857Z,15.33
2022-08-30T03:21:45.144Z,15.29
2022-08-30T03:24:13.597Z,15.26
2022-08-30T03:26:46.055Z,15.22
2022-08-30T03:29:14.359Z,15.17
2022-08-30T03:31:52.431Z,15.14
2022-08-30T03:34:21.998Z,15.09
2022-08-30T03:36:52.767Z,15.07
2022-08-30T03:39:22.475Z,15.04
2022-08-30T03:41:50.379Z,15.01
2022-08-30T03:44:19.757Z,14.98
2022-08-30T03:46:47.568Z,14.95
2022-08-30T03:49:15.644Z,14.92
2022-08-30T03:51:43.785Z,14.90
2022-08-30T03:54:13.010Z,14.87
2022-08-30T03:56:41.279Z,14.84
2022-08-30T03:59:09.140Z,14.83
2022-08-30T04:01:37.080Z,14.80
2022-08-30T04:04:05.065Z,14.78
2022-08-30T04:06:33.355Z,14.76
2022-08-30T04:09:01.663Z,14.75
2022-08-30T04:11:31.207Z,14.74
2022-08-30T04:13:58.992Z,14.71
2022-08-30T04:16:27.010Z,14.69
2022-08-30T04:18:54.907Z,14.67
2022-08-30T04:21:22.894Z,14.67
2022-08-30T04:23:50.804Z,14.66
2022-08-30T04:26:18.600Z,14.67
2022-08-30T04:28:47.799Z,14.65
2022-08-30T04:31:17.644Z,14.66
2022-08-30T04:33:46.118Z,14.67
2022-08-30T04:36:14.067Z,14.68
2022-08-30T04:38:43.306Z,14.69
2022-08-30T04:41:13.167Z,14.71
2022-08-30T04:43:41.248Z,14.74
2022-08-30T04:46:10.700Z,14.77
2022-08-30T04:48:39.449Z,14.81
2022-08-30T04:51:08.421Z,14.86
2022-08-30T04:53:36.715Z,14.89
2022-08-30T04:56:08.738Z,14.95
2022-08-30T04:58:36.685Z,15.01
2022-08-30T05:01:04.741Z,15.05
2022-08-30T05:03:33.928Z,15.10
2022-08-30T05:06:01.686Z,15.15
2022-08-30T05:08:29.498Z,15.20
2022-08-30T05:10:57.280Z,15.26
2022-08-30T05:13:34.978Z,15.30
2022-08-30T05:16:05.191Z,15.34
2022-08-30T05:18:34.465Z,15.41
2022-08-30T05:21:10.211Z,15.45
2022-08-30T05:23:41.162Z,15.48
2022-08-30T05:26:15.029Z,15.53
2022-08-30T05:28:43.111Z,15.59
2022-08-30T05:31:16.358Z,15.62
2022-08-30T05:33:46.080Z,15.67
2022-08-30T05:36:19.630Z,15.70
2022-08-30T05:38:47.957Z,15.74
2022-08-30T05:41:16.113Z,15.79
2022-08-30T05:43:46.343Z,15.82
2022-08-30T05:46:19.372Z,15.86
2022-08-30T05:48:49.396Z,15.91
2022-08-30T05:51:20.315Z,15.96
2022-08-30T05:53:49.517Z,16.01
2022-08-30T05:56:19.455Z,16.07
2022-08-30T05:58:48.416Z,16.11
2022-08-30T06:01:23.317Z,16.17
2022-08-30T06:03:52.777Z,16.22
2022-08-30T06:06:22.066Z,16.27
2022-08-30T06:08:50.709Z,16.35
2022-08-30T06:11:21.678Z,16.38
2022-08-30T06:13:50.750Z,16.47
2022-08-30T06:16:22.041Z,16.52
2022-08-30T06:18:51.806Z,16.58
2022-08-30T06:21:25.427Z,16.66
2022-08-30T06:23:53.686Z,16.73
2022-08-30T06:26:22.627Z,16.80
2022-08-30T06:28:51.955Z,16.83
2022-08-30T06:31:22.239Z,16.85
2022-08-30T06:33:51.121Z,16.91
2022-08-30T06:36:23.994Z,16.95
2022-08-30T06:38:54.396Z,16.98
2022-08-30T06:41:25.145Z,17.08
2022-08-30T06:43:54.365Z,17.14
2022-08-30T06:46:25.619Z,17.22
2022-08-30T06:48:53.622Z,17.30
2022-08-30T06:51:27.609Z,17.37
2022-08-30T06:53:55.785Z,17.42
2022-08-30T06:56:27.389Z,17.45
2022-08-30T06:58:55.876Z,17.50
2022-08-30T07:01:32.672Z,17.52
2022-08-30T07:04:01.828Z,17.57
2022-08-30T07:06:31.720Z,17.61
2022-08-30T07:08:59.878Z,17.67
2022-08-30T07:11:31.853Z,17.75
2022-08-30T07:14:00.328Z,17.82
2022-08-30T07:16:28.484Z,17.90
2022-08-30T07:18:59.001Z,17.94
2022-08-30T07:21:30.227Z,18.05
2022-08-30T07:24:01.403Z,18.12
2022-08-30T07:26:33.678Z,18.16
2022-08-30T07:29:03.535Z,18.21
2022-08-30T07:31:33.143Z,18.26
2022-08-30T07:34:01.213Z,18.29
2022-08-30T07:36:29.229Z,18.28
2022-08-30T07:38:57.492Z,18.28
2022-08-30T07:41:29.162Z,18.36
2022-08-30T07:43:57.777Z,18.42
2022-08-30T07:46:26.512Z,18.46
2022-08-30T07:48:55.266Z,18.49
2022-08-30T07:51:27.050Z,18.53
2022-08-30T07:53:56.122Z,18.56
2022-08-30T07:56:25.799Z,18.59
2022-08-30T07:58:54.567Z,18.61
2022-08-30T08:01:23.933Z,18.64
2022-08-30T08:03:52.012Z,18.67
2022-08-30T08:06:21.601Z,18.70
2022-08-30T08:08:49.664Z,18.74
2022-08-30T08:11:20.769Z,18.78
2022-08-30T08:13:53.945Z,18.84
2022-08-30T08:16:23.458Z,18.90
2022-08-30T08:18:51.446Z,18.96
2022-08-30T08:21:19.409Z,19.00
2022-08-30T08:23:47.223Z,19.01
2022-08-30T08:26:15.134Z,19.01
2022-08-30T08:28:42.974Z,19.03
2022-08-30T08:31:17.768Z,19.03
2022-08-30T08:33:45.907Z,19.10
2022-08-30T08:36:13.737Z,19.18
2022-08-30T08:38:42.154Z,19.28
2022-08-30T08:41:20.680Z,19.35
2022-08-30T08:43:48.665Z,19.40
2022-08-30T08:46:26.390Z,19.51
2022-08-30T08:49:00.680Z,19.58
2022-08-30T08:51:49.893Z,19.67
2022-08-30T08:54:23.906Z,19.75
2022-08-30T08:56:52.291Z,19.87
2022-08-30T08:59:20.320Z,19.93
2022-08-30T09:01:50.947Z,20.03
2022-08-30T09:04:25.006Z,20.14
2022-08-30T09:06:56.660Z,20.31
2022-08-30T09:09:29.002Z,20.45
2022-08-30T09:11:57.178Z,20.64
2022-08-30T09:14:30.026Z,20.76
2022-08-30T09:17:03.227Z,20.74
2022-08-30T09:19:41.962Z,20.80
2022-08-30T09:22:26.474Z,20.84
2022-08-30T09:24:57.016Z,20.91
2022-08-30T09:27:27.988Z,20.97
2022-08-30T09:29:59.117Z,20.98
2022-08-30T09:32:32.776Z,21.05
2022-08-30T09:35:00.947Z,21.11
2022-08-30T09:37:36.378Z,21.21
2022-08-30T09:40:13.043Z,21.31
2022-08-30T09:42:41.289Z,21.39
2022-08-30T09:45:21.304Z,21.46
2022-08-30T09:47:50.482Z,21.45
2022-08-30T09:50:24.092Z,21.44
2022-08-30T09:53:01.688Z,21.48
2022-08-30T09:55:47.311Z,21.44
2022-08-30T09:58:29.345Z,21.45
2022-08-30T10:01:06.174Z,21.54
2022-08-30T10:03:40.459Z,21.67
2022-08-30T10:06:23.679Z,21.78
2022-08-30T10:09:03.671Z,21.88
2022-08-30T10:11:40.997Z,21.98
2022-08-30T10:14:36.601Z,22.10
2022-08-30T10:17:13.038Z,22.20
2022-08-30T10:19:58.719Z,22.40
2022-08-30T10:22:31.989Z,22.58
2022-08-30T10:25:08.238Z,22.65
2022-08-30T10:27:42.460Z,22.72
2022-08-30T10:30:13.953Z,22.73
2022-08-30T10:32:47.639Z,22.82
2022-08-30T10:35:19.792Z,23.07
2022-08-30T10:37:51.550Z,23.29
2022-08-30T10:40:44.669Z,23.31
2022-08-30T10:43:21.664Z,23.41
2022-08-30T10:45:53.505Z,23.58
2022-08-30T10:48:26.699Z,23.90
2022-08-30T10:50:59.925Z,24.17
2022-08-30T10:53:33.901Z,24.45
2022-08-30T10:56:04.970Z,24.66
2022-08-30T10:58:33.514Z,24.72
2022-08-30T11:01:13.969Z,24.71
2022-08-30T11:04:22.885Z,24.80
2022-08-30T11:07:05.002Z,24.97
2022-08-30T11:09:52.403Z,24.97
2022-08-30T11:12:34.612Z,24.98
2022-08-30T11:15:15.809Z,24.90
2022-08-30T11:17:48.565Z,24.78
2022-08-30T11:20:30.835Z,24.72
2022-08-30T11:23:33.114Z,24.79
2022-08-30T11:26:04.417Z,25.18
2022-08-30T11:29:01.230Z,25.68
2022-08-30T11:31:35.204Z,25.99
2022-08-30T11:34:03.518Z,26.16
2022-08-30T11:37:03.678Z,26.45
2022-08-30T11:39:56.363Z,26.62
2022-08-30T11:42:31.036Z,26.64
2022-08-30T11:45:36.312Z,26.82
2022-08-30T11:48:07.450Z,26.80
2022-08-30T11:50:40.650Z,26.71
2022-08-30T11:53:21.877Z,26.74
2022-08-30T11:56:00.802Z,26.68
2022-08-30T11:58:43.963Z,26.74
2022-08-30T12:01:42.060Z,27.07
2022-08-30T12:04:15.013Z,27.31
2022-08-30T12:06:53.577Z,27.45
2022-08-30T12:10:02.966Z,27.53
2022-08-30T12:12:54.629Z,27.38
2022-08-30T12:15:48.808Z,27.46
2022-08-30T12:18:29.643Z,27.46
2022-08-30T12:21:02.457Z,27.27
2022-08-30T12:23:44.502Z,27.36
2022-08-30T12:26:20.429Z,27.68
2022-08-30T12:28:51.347Z,27.79
2022-08-30T12:31:22.320Z,27.94
2022-08-30T12:33:55.000Z,28.33
2022-08-30T12:36:36.173Z,28.83
2022-08-30T12:39:09.779Z,29.27
2022-08-30T12:41:43.458Z,29.43
2022-08-30T12:44:17.674Z,29.69
2022-08-30T12:46:49.424Z,30.11
2022-08-30T12:49:19.326Z,30.53
2022-08-30T12:51:47.855Z,30.57
2022-08-30T12:54:21.866Z,30.43
2022-08-30T12:57:14.056Z,30.56
2022-08-30T12:59:59.159Z,30.67
2022-08-30T13:02:29.965Z,30.54
2022-08-30T13:04:59.082Z,30.70
2022-08-30T13:07:34.093Z,30.84
2022-08-30T13:10:19.893Z,30.70
2022-08-30T13:13:05.473Z,30.45
2022-08-30T13:15:42.080Z,30.55
2022-08-30T13:18:30.602Z,30.66
2022-08-30T13:21:12.255Z,30.54
2022-08-30T13:23:40.539Z,30.38
2022-08-30T13:26:09.267Z,30.12
2022-08-30T13:28:48.863Z,30.27
2022-08-30T13:31:18.563Z,30.59
2022-08-30T13:33:47.644Z,30.69
2022-08-30T13:36:15.872Z,30.58
2022-08-30T13:38:43.851Z,30.45
2022-08-30T13:41:12.153Z,30.32
2022-08-30T13:46:29.287Z,29.79
2022-08-30T13:49:03.252Z,29.60
2022-08-30T13:51:31.300Z,29.49
2022-08-30T13:54:00.741Z,29.74
2022-08-30T13:56:31.732Z,29.78
2022-08-30T13:58:59.943Z,30.08
2022-08-30T14:02:07.559Z,30.31
2022-08-30T14:04:21.831Z,30.71
2022-08-30T14:09:38.199Z,31.18
2022-08-30T14:12:06.571Z,31.23
2022-08-30T14:14:42.615Z,30.86
2022-08-30T14:17:12.782Z,30.65
2022-08-30T14:19:40.859Z,30.41
2022-08-30T14:22:08.660Z,30.24
2022-08-30T14:24:36.741Z,30.05
2022-08-30T14:27:04.639Z,29.76
2022-08-30T14:29:32.534Z,29.56
2022-08-30T14:32:00.615Z,29.38
2022-08-30T14:34:30.055Z,29.23
2022-08-30T14:36:58.283Z,28.87
2022-08-30T14:39:27.227Z,28.70
2022-08-30T14:41:56.811Z,28.56
2022-08-30T14:44:25.711Z,28.36
2022-08-30T14:46:53.936Z,28.13
2022-08-30T14:49:22.426Z,27.93
2022-08-30T14:51:52.782Z,27.76
2022-08-30T14:54:22.597Z,27.59
2022-08-30T14:56:53.868Z,27.50
2022-08-30T14:59:22.486Z,27.40
2022-08-30T15:01:50.321Z,27.31
2022-08-30T15:04:19.039Z,27.18
2022-08-30T15:06:50.143Z,27.07
2022-08-30T15:09:23.659Z,26.97
2022-08-30T15:11:53.521Z,26.86
2022-08-30T15:14:23.076Z,26.76
2022-08-30T15:16:51.134Z,26.72
2022-08-30T15:19:18.995Z,26.62
2022-08-30T15:21:49.165Z,26.54
2022-08-30T15:24:29.534Z,26.41
2022-08-30T15:26:59.781Z,26.29
2022-08-30T15:29:28.374Z,26.24
2022-08-30T15:32:00.411Z,26.21
2022-08-30T15:34:28.619Z,26.17
2022-08-30T15:36:57.911Z,26.10
2022-08-30T15:39:27.311Z,26.03
2022-08-30T15:42:00.332Z,25.97
2022-08-30T15:44:29.353Z,25.90
2022-08-30T15:46:57.254Z,25.85
2022-08-30T15:49:25.831Z,25.78
2022-08-30T15:51:54.711Z,25.72
2022-08-30T15:54:24.388Z,25.67
2022-08-30T15:56:59.572Z,25.58
2022-08-30T15:59:28.548Z,25.48
2022-08-30T16:01:57.245Z,25.42
2022-08-30T16:04:25.684Z,25.36
2022-08-30T16:06:54.218Z,25.29
2022-08-30T16:09:22.671Z,25.25
2022-08-30T16:11:51.230Z,25.19
2022-08-30T16:14:20.434Z,25.13
2022-08-30T16:16:48.500Z,25.08
2022-08-30T16:19:16.430Z,25.04
2022-08-30T16:21:44.275Z,24.97
2022-08-30T16:24:14.068Z,24.89
2022-08-30T16:26:43.316Z,24.80
2022-08-30T16:29:13.201Z,24.72
2022-08-30T16:31:44.767Z,24.68
2022-08-30T16:34:13.659Z,24.62
2022-08-30T16:36:41.499Z,24.56
2022-08-30T16:39:12.724Z,24.50
2022-08-30T16:41:41.472Z,24.42
2022-08-30T16:44:09.296Z,24.36
2022-08-30T16:46:40.342Z,24.31
2022-08-30T16:49:11.025Z,24.26
2022-08-30T16:51:39.482Z,24.18
2022-08-30T16:54:09.027Z,24.11
2022-08-30T16:56:37.935Z,24.02
2022-08-30T16:59:11.067Z,23.93
2022-08-30T17:01:42.320Z,23.84
2022-08-30T17:04:15.757Z,23.76
2022-08-30T17:06:46.605Z,23.66
2022-08-30T17:09:15.065Z,23.56
2022-08-30T17:11:43.517Z,23.49
2022-08-30T17:14:11.733Z,23.40
2022-08-30T17:16:41.396Z,23.32
2022-08-30T17:19:11.725Z,23.24
2022-08-30T17:21:39.587Z,23.16
2022-08-30T17:24:07.637Z,23.06
2022-08-30T17:26:37.588Z,22.95
2022-08-30T17:29:06.264Z,22.83
2022-08-30T17:31:35.875Z,22.75
2022-08-30T17:34:06.325Z,22.67
2022-08-30T17:36:37.334Z,22.56
2022-08-30T17:39:10.827Z,22.47
2022-08-30T17:41:40.031Z,22.39
2022-08-30T17:44:13.593Z,22.32
2022-08-30T17:46:41.670Z,22.23
2022-08-30T17:49:10.585Z,22.15
2022-08-30T17:51:42.749Z,22.06
2022-08-30T17:54:12.108Z,21.97
2022-08-30T17:56:40.232Z,21.88
2022-08-30T17:59:09.174Z,21.79
2022-08-30T18:01:37.801Z,21.69
2022-08-30T18:04:06.482Z,21.61
2022-08-30T18:06:34.674Z,21.53
2022-08-30T18:09:04.455Z,21.46
2022-08-30T18:11:36.572Z,21.40
2022-08-30T18:14:05.394Z,21.33
2022-08-30T18:16:33.570Z,21.23
2022-08-30T18:19:03.569Z,21.16
2022-08-30T18:21:31.604Z,21.09
2022-08-30T18:23:59.436Z,21.02
2022-08-30T18:26:28.662Z,20.97
2022-08-30T18:28:57.014Z,20.88
2022-08-30T18:31:24.859Z,20.82
2022-08-30T18:33:52.946Z,20.77
2022-08-30T18:36:20.858Z,20.71
2022-08-30T18:38:50.086Z,20.65
2022-08-30T18:41:18.076Z,20.58
2022-08-30T18:43:47.281Z,20.52
2022-08-30T18:46:18.133Z,20.47
2022-08-30T18:48:47.487Z,20.41
2022-08-30T18:51:17.755Z,20.34
2022-08-30T18:53:47.188Z,20.27
2022-08-30T18:56:17.257Z,20.19
2022-08-30T18:58:47.574Z,20.12
2022-08-30T19:01:19.444Z,20.06
2022-08-30T19:03:50.056Z,19.99
2022-08-30T19:06:20.474Z,19.92
2022-08-30T19:08:49.293Z,19.87
2022-08-30T19:11:17.123Z,19.80
2022-08-30T19:13:44.905Z,19.75
2022-08-30T19:16:14.301Z,19.69
2022-08-30T19:18:42.329Z,19.65
2022-08-30T19:21:13.715Z,19.59
2022-08-30T19:23:42.280Z,19.54
2022-08-30T19:26:10.772Z,19.50
2022-08-30T19:28:38.885Z,19.43
2022-08-30T19:31:07.243Z,19.40
2022-08-30T19:33:36.811Z,19.36
2022-08-30T19:36:06.846Z,19.31
2022-08-30T19:38:35.665Z,19.27
2022-08-30T19:41:04.432Z,19.21
2022-08-30T19:43:32.928Z,19.17
2022-08-30T19:46:01.352Z,19.11
2022-08-30T19:48:32.757Z,19.08
2022-08-30T19:51:08.011Z,19.04
2022-08-30T19:53:36.778Z,19.01
2022-08-30T19:56:05.415Z,18.95
2022-08-30T19:58:33.478Z,18.92
2022-08-30T20:01:11.608Z,18.87
2022-08-30T20:03:48.217Z,18.83
2022-08-30T20:06:21.255Z,18.79
2022-08-30T20:08:49.053Z,18.73
2022-08-30T20:11:20.870Z,18.68
2022-08-30T20:13:49.285Z,18.64
2022-08-30T20:16:18.278Z,18.59
2022-08-30T20:18:48.906Z,18.54
2022-08-30T20:21:17.253Z,18.49
2022-08-30T20:23:47.085Z,18.44
2022-08-30T20:26:15.018Z,18.41
2022-08-30T20:28:43.377Z,18.37
2022-08-30T20:31:11.851Z,18.31
2022-08-30T20:33:41.249Z,18.29
2022-08-30T20:36:11.411Z,18.26
2022-08-30T20:38:40.457Z,18.23
2022-08-30T20:41:12.819Z,18.19
2022-08-30T20:43:40.715Z,18.15
2022-08-30T20:46:09.967Z,18.12
2022-08-30T20:48:38.178Z,18.09
2022-08-30T20:51:09.983Z,18.06
2022-08-30T20:53:38.160Z,18.03
2022-08-30T20:56:06.489Z,18.01
2022-08-30T20:58:35.671Z,18.01
2022-08-30T21:01:03.559Z,17.98
2022-08-30T21:03:32.796Z,17.96
2022-08-30T21:06:00.790Z,17.93
2022-08-30T21:08:28.665Z,17.93
2022-08-30T21:10:56.552Z,17.94
2022-08-30T21:13:24.500Z,17.94
2022-08-30T21:15:55.100Z,17.95
2022-08-30T21:18:29.781Z,17.96
2022-08-30T21:20:57.819Z,17.96
2022-08-30T21:23:25.754Z,17.96
2022-08-30T21:25:54.650Z,17.95
2022-08-30T21:28:23.659Z,17.94
2022-08-30T21:31:03.784Z,17.94
2022-08-30T21:33:32.990Z,17.94
2022-08-30T21:36:18.721Z,17.91
2022-08-30T21:38:46.695Z,17.92
2022-08-30T21:41:15.051Z,17.91
2022-08-30T21:43:42.867Z,17.90
2022-08-30T21:46:11.523Z,17.92
2022-08-30T21:48:40.829Z,17.91
2022-08-30T21:51:10.109Z,17.90
2022-08-30T21:53:38.384Z,17.90
2022-08-30T21:56:13.158Z,17.90
2022-08-30T21:58:45.908Z,17.90
2022-08-30T22:01:17.469Z,17.90
2022-08-30T22:03:47.408Z,17.92
2022-08-30T22:06:16.176Z,17.91
2022-08-30T22:08:46.061Z,17.90
2022-08-30T22:11:16.793Z,17.90
2022-08-30T22:13:48.067Z,17.90
2022-08-30T22:16:16.937Z,17.89
2022-08-30T22:18:46.589Z,17.88
2022-08-30T22:21:16.924Z,17.86
2022-08-30T22:23:45.082Z,17.86
2022-08-30T22:30:07.680Z,17.83
2022-08-30T22:32:35.305Z,17.83
2022-08-30T22:35:04.822Z,17.82
2022-08-30T22:37:32.443Z,17.81
2022-08-30T22:40:00.107Z,17.81
2022-08-30T22:42:27.781Z,17.82
2022-08-30T22:44:55.402Z,17.81
2022-08-30T22:47:23.032Z,17.81
2022-08-30T22:49:50.946Z,17.81
2022-08-30T22:52:21.261Z,17.81
2022-08-30T22:54:52.870Z,17.81
2022-08-30T22:57:20.496Z,17.79
2022-08-30T22:59:48.655Z,17.79
2022-08-30T23:02:16.278Z,17.78
2022-08-30T23:04:44.020Z,17.76
2022-08-30T23:07:11.911Z,17.76
2022-08-30T23:09:40.908Z,17.73
2022-08-30T23:12:08.706Z,17.71
2022-08-30T23:14:36.325Z,17.68
2022-08-30T23:17:04.088Z,17.64
2022-08-30T23:19:31.822Z,17.61
2022-08-30T23:21:59.514Z,17.56
2022-08-30T23:24:49.124Z,17.55
2022-08-30T23:27:36.009Z,17.51
2022-08-30T23:30:21.526Z,17.47
2022-08-30T23:33:07.083Z,17.46
2022-08-30T23:35:52.264Z,17.43
2022-08-30T23:38:37.449Z,17.41
2022-08-30T23:41:22.927Z,17.40
2022-08-30T23:44:20.930Z,17.37
2022-08-30T23:47:06.160Z,17.35
2022-08-30T23:49:51.398Z,17.33
2022-08-30T23:52:36.852Z,17.31
2022-08-30T23:55:22.947Z,17.30
2022-08-30T23:58:08.403Z,17.27
